sensor_id;sensor_type;location;lat;lon;timestamp;pressure;altitude;pressure_sealevel;temperature;humidity
77631;BME280;66798;47.370;8.552;2023-10-31T00:01:08;95409.91;;;10.77;86.10
77631;BME280;66798;47.370;8.552;2023-10-31T00:03:34;95411.00;;;10.76;85.53
77631;BME280;66798;47.370;8.552;2023-10-31T00:05:59;95399.97;;;10.88;85.97
77631;BME280;66798;47.370;8.552;2023-10-31T00:08:24;95400.78;;;10.74;86.37
77631;BME280;66798;47.370;8.552;2023-10-31T00:10:50;95400.19;;;10.77;85.76
77631;BME280;66798;47.370;8.552;2023-10-31T00:13:15;95411.09;;;10.84;85.63
77631;BME280;66798;47.370;8.552;2023-10-31T00:15:41;95413.03;;;10.79;86.59
77631;BME280;66798;47.370;8.552;2023-10-31T00:18:07;95407.88;;;10.74;86.79
77631;BME280;66798;47.370;8.552;2023-10-31T00:20:32;95406.88;;;10.83;86.25
77631;BME280;66798;47.370;8.552;2023-10-31T00:22:57;95418.63;;;10.63;86.60
77631;BME280;66798;47.370;8.552;2023-10-31T00:25:23;95422.50;;;10.80;86.76
77631;BME280;66798;47.370;8.552;2023-10-31T00:27:48;95408.28;;;10.67;86.93
77631;BME280;66798;47.370;8.552;2023-10-31T00:30:14;95420.03;;;10.83;86.28
77631;BME280;66798;47.370;8.552;2023-10-31T00:32:39;95411.53;;;10.87;86.14
77631;BME280;66798;47.370;8.552;2023-10-31T00:35:05;95398.72;;;10.85;85.22
77631;BME280;66798;47.370;8.552;2023-10-31T00:37:30;95403.28;;;10.79;85.26
77631;BME280;66798;47.370;8.552;2023-10-31T00:39:56;95411.84;;;10.85;85.38
77631;BME280;66798;47.370;8.552;2023-10-31T00:42:21;95410.47;;;10.88;84.94
77631;BME280;66798;47.370;8.552;2023-10-31T00:44:47;95420.03;;;10.83;85.21
77631;BME280;66798;47.370;8.552;2023-10-31T00:47:12;95409.81;;;10.82;84.93
77631;BME280;66798;47.370;8.552;2023-10-31T00:49:37;95421.81;;;10.74;84.68
77631;BME280;66798;47.370;8.552;2023-10-31T00:52:03;95422.50;;;10.80;85.30
77631;BME280;66798;47.370;8.552;2023-10-31T00:54:28;95435.53;;;10.85;84.73
77631;BME280;66798;47.370;8.552;2023-10-31T00:56:54;95452.63;;;10.96;84.53
77631;BME280;66798;47.370;8.552;2023-10-31T00:59:19;95472.34;;;10.99;84.23
77631;BME280;66798;47.370;8.552;2023-10-31T01:01:45;95483.38;;;10.87;84.24
77631;BME280;66798;47.370;8.552;2023-10-31T01:04:10;95492.72;;;10.79;84.18
77631;BME280;66798;47.370;8.552;2023-10-31T01:06:42;95511.22;;;10.88;83.72
77631;BME280;66798;47.370;8.552;2023-10-31T01:09:09;95508.41;;;10.84;83.17
77631;BME280;66798;47.370;8.552;2023-10-31T01:11:35;95507.22;;;10.91;83.15
77631;BME280;66798;47.370;8.552;2023-10-31T01:14:00;95498.06;;;10.88;82.42
77631;BME280;66798;47.370;8.552;2023-10-31T01:16:26;95504.09;;;10.89;82.29
77631;BME280;66798;47.370;8.552;2023-10-31T01:18:51;95496.97;;;10.89;79.68
77631;BME280;66798;47.370;8.552;2023-10-31T01:21:16;95507.09;;;10.96;81.82
77631;BME280;66798;47.370;8.552;2023-10-31T01:23:42;95503.91;;;10.99;81.49
77631;BME280;66798;47.370;8.552;2023-10-31T01:26:07;95510.13;;;10.89;82.02
77631;BME280;66798;47.370;8.552;2023-10-31T01:28:33;95503.81;;;10.90;81.11
77631;BME280;66798;47.370;8.552;2023-10-31T01:30:58;95519.50;;;10.95;80.48
77631;BME280;66798;47.370;8.552;2023-10-31T01:33:24;95514.94;;;10.87;78.92
77631;BME280;66798;47.370;8.552;2023-10-31T01:35:49;95500.91;;;10.92;79.00
77631;BME280;66798;47.370;8.552;2023-10-31T01:38:15;95505.84;;;10.93;78.34
77631;BME280;66798;47.370;8.552;2023-10-31T01:40:40;95496.53;;;10.87;79.19
77631;BME280;66798;47.370;8.552;2023-10-31T01:43:06;95489.31;;;10.79;77.42
77631;BME280;66798;47.370;8.552;2023-10-31T01:45:31;95499.06;;;10.78;79.06
77631;BME280;66798;47.370;8.552;2023-10-31T01:47:58;95503.72;;;10.81;79.33
77631;BME280;66798;47.370;8.552;2023-10-31T01:50:24;95492.16;;;10.69;78.75
77631;BME280;66798;47.370;8.552;2023-10-31T01:52:51;95493.78;;;10.78;79.62
77631;BME280;66798;47.370;8.552;2023-10-31T01:55:18;95505.09;;;10.79;79.04
77631;BME280;66798;47.370;8.552;2023-10-31T01:57:46;95506.47;;;10.76;79.62
77631;BME280;66798;47.370;8.552;2023-10-31T02:00:12;95505.09;;;10.79;80.34
77631;BME280;66798;47.370;8.552;2023-10-31T02:02:40;95516.97;;;10.76;79.07
77631;BME280;66798;47.370;8.552;2023-10-31T02:05:07;95512.09;;;10.83;79.24
77631;BME280;66798;47.370;8.552;2023-10-31T02:07:33;95518.44;;;10.82;78.61
77631;BME280;66798;47.370;8.552;2023-10-31T02:09:58;95530.72;;;10.87;79.27
77631;BME280;66798;47.370;8.552;2023-10-31T02:12:34;95521.56;;;10.71;79.18
77631;BME280;66798;47.370;8.552;2023-10-31T02:14:59;95535.22;;;10.73;79.85
77631;BME280;66798;47.370;8.552;2023-10-31T02:17:25;95532.59;;;10.73;79.90
77631;BME280;66798;47.370;8.552;2023-10-31T02:19:50;95529.84;;;10.78;80.17
77631;BME280;66798;47.370;8.552;2023-10-31T02:22:16;95534.03;;;10.79;79.68
77631;BME280;66798;47.370;8.552;2023-10-31T02:24:41;95545.81;;;10.81;79.46
77631;BME280;66798;47.370;8.552;2023-10-31T02:27:07;95548.06;;;10.74;78.45
77631;BME280;66798;47.370;8.552;2023-10-31T02:29:32;95556.44;;;10.76;80.74
77631;BME280;66798;47.370;8.552;2023-10-31T02:31:58;95552.94;;;10.67;78.69
77631;BME280;66798;47.370;8.552;2023-10-31T02:34:23;95560.44;;;10.74;79.66
77631;BME280;66798;47.370;8.552;2023-10-31T02:36:49;95557.50;;;10.75;79.35
77631;BME280;66798;47.370;8.552;2023-10-31T02:39:14;95574.44;;;10.69;78.88
77631;BME280;66798;47.370;8.552;2023-10-31T02:41:39;95572.91;;;10.68;78.82
77631;BME280;66798;47.370;8.552;2023-10-31T02:44:05;95571.22;;;10.72;78.86
77631;BME280;66798;47.370;8.552;2023-10-31T02:46:30;95583.81;;;10.75;78.60
77631;BME280;66798;47.370;8.552;2023-10-31T02:48:56;95566.06;;;10.67;78.07
77631;BME280;66798;47.370;8.552;2023-10-31T02:51:21;95571.53;;;10.71;78.29
77631;BME280;66798;47.370;8.552;2023-10-31T02:53:46;95574.34;;;10.74;78.59
77631;BME280;66798;47.370;8.552;2023-10-31T02:56:12;95571.63;;;10.79;78.50
77631;BME280;66798;47.370;8.552;2023-10-31T02:58:37;95570.06;;;10.78;78.54
77631;BME280;66798;47.370;8.552;2023-10-31T03:01:03;95568.41;;;10.69;78.37
77631;BME280;66798;47.370;8.552;2023-10-31T03:03:28;95572.31;;;10.71;77.79
77631;BME280;66798;47.370;8.552;2023-10-31T03:05:54;95558.97;;;10.68;77.73
77631;BME280;66798;47.370;8.552;2023-10-31T03:08:20;95572.41;;;10.66;78.23
77631;BME280;66798;47.370;8.552;2023-10-31T03:10:47;95571.25;;;10.58;77.06
77631;BME280;66798;47.370;8.552;2023-10-31T03:13:16;95576.78;;;10.57;78.47
77631;BME280;66798;47.370;8.552;2023-10-31T03:15:41;95573.06;;;10.58;77.85
77631;BME280;66798;47.370;8.552;2023-10-31T03:18:06;95583.19;;;10.51;78.32
77631;BME280;66798;47.370;8.552;2023-10-31T03:20:32;95580.56;;;10.51;77.78
77631;BME280;66798;47.370;8.552;2023-10-31T03:22:57;95599.94;;;10.41;78.53
77631;BME280;66798;47.370;8.552;2023-10-31T03:25:23;95597.53;;;10.45;77.63
77631;BME280;66798;47.370;8.552;2023-10-31T03:27:48;95602.19;;;10.48;76.93
77631;BME280;66798;47.370;8.552;2023-10-31T03:30:14;95605.59;;;10.48;76.97
77631;BME280;66798;47.370;8.552;2023-10-31T03:32:39;95607.53;;;10.43;76.91
77631;BME280;66798;47.370;8.552;2023-10-31T03:35:05;95613.66;;;10.38;77.58
77631;BME280;66798;47.370;8.552;2023-10-31T03:37:31;95618.66;;;10.39;78.08
77631;BME280;66798;47.370;8.552;2023-10-31T03:39:56;95626.59;;;10.34;77.52
77631;BME280;66798;47.370;8.552;2023-10-31T03:42:21;95625.81;;;10.34;77.69
77631;BME280;66798;47.370;8.552;2023-10-31T03:44:47;95629.88;;;10.26;77.61
77631;BME280;66798;47.370;8.552;2023-10-31T03:47:12;95635.38;;;10.30;77.76
77631;BME280;66798;47.370;8.552;2023-10-31T03:49:39;95638.81;;;10.25;78.68
77631;BME280;66798;47.370;8.552;2023-10-31T03:52:05;95631.81;;;10.20;78.04
77631;BME280;66798;47.370;8.552;2023-10-31T03:54:31;95633.03;;;10.09;79.27
77631;BME280;66798;47.370;8.552;2023-10-31T03:56:56;95644.53;;;10.13;78.59
77631;BME280;66798;47.370;8.552;2023-10-31T03:59:21;95641.91;;;10.13;80.06
77631;BME280;66798;47.370;8.552;2023-10-31T04:01:47;95642.88;;;10.17;80.06
77631;BME280;66798;47.370;8.552;2023-10-31T04:04:12;95640.25;;;10.17;80.39
77631;BME280;66798;47.370;8.552;2023-10-31T04:06:38;95645.22;;;10.19;81.42
77631;BME280;66798;47.370;8.552;2023-10-31T04:09:06;95650.28;;;10.15;80.36
77631;BME280;66798;47.370;8.552;2023-10-31T04:11:31;95650.06;;;10.31;80.98
77631;BME280;66798;47.370;8.552;2023-10-31T04:13:57;95652.09;;;10.15;80.13
77631;BME280;66798;47.370;8.552;2023-10-31T04:16:22;95658.78;;;10.26;80.14
77631;BME280;66798;47.370;8.552;2023-10-31T04:18:48;95655.66;;;10.24;80.65
77631;BME280;66798;47.370;8.552;2023-10-31T04:21:14;95653.78;;;10.25;79.08
77631;BME280;66798;47.370;8.552;2023-10-31T04:23:39;95664.75;;;10.32;79.04
77631;BME280;66798;47.370;8.552;2023-10-31T04:26:05;95660.84;;;10.29;79.35
77631;BME280;66798;47.370;8.552;2023-10-31T04:28:30;95667.19;;;10.28;78.90
77631;BME280;66798;47.370;8.552;2023-10-31T04:30:56;95667.00;;;10.19;78.70
77631;BME280;66798;47.370;8.552;2023-10-31T04:33:21;95674.25;;;10.28;78.92
77631;BME280;66798;47.370;8.552;2023-10-31T04:35:47;95665.06;;;10.30;78.39
77631;BME280;66798;47.370;8.552;2023-10-31T04:38:12;95667.69;;;10.30;78.84
77631;BME280;66798;47.370;8.552;2023-10-31T04:40:38;95670.00;;;10.32;77.29
77631;BME280;66798;47.370;8.552;2023-10-31T04:43:03;95672.94;;;10.30;76.77
77631;BME280;66798;47.370;8.552;2023-10-31T04:45:28;95661.22;;;10.23;77.41
77631;BME280;66798;47.370;8.552;2023-10-31T04:47:54;95664.28;;;10.30;77.75
77631;BME280;66798;47.370;8.552;2023-10-31T04:50:19;95650.88;;;10.26;76.93
77631;BME280;66798;47.370;8.552;2023-10-31T04:52:45;95648.50;;;10.30;77.58
77631;BME280;66798;47.370;8.552;2023-10-31T04:55:10;95653.47;;;10.31;75.63
77631;BME280;66798;47.370;8.552;2023-10-31T04:57:36;95649.63;;;10.24;75.88
77631;BME280;66798;47.370;8.552;2023-10-31T05:00:01;95650.06;;;10.31;75.81
77631;BME280;66798;47.370;8.552;2023-10-31T05:02:28;95662.25;;;10.21;76.24
77631;BME280;66798;47.370;8.552;2023-10-31T05:04:54;95654.38;;;10.21;76.67
77631;BME280;66798;47.370;8.552;2023-10-31T05:07:20;95655.81;;;10.14;75.95
77631;BME280;66798;47.370;8.552;2023-10-31T05:09:45;95658.56;;;10.23;74.70
77631;BME280;66798;47.370;8.552;2023-10-31T05:12:11;95656.66;;;10.28;75.62
77631;BME280;66798;47.370;8.552;2023-10-31T05:14:37;95655.16;;;10.22;76.97
77631;BME280;66798;47.370;8.552;2023-10-31T05:17:02;95649.34;;;10.25;76.39
77631;BME280;66798;47.370;8.552;2023-10-31T05:19:28;95658.28;;;10.24;76.69
77631;BME280;66798;47.370;8.552;2023-10-31T05:21:53;95658.50;;;10.28;75.42
77631;BME280;66798;47.370;8.552;2023-10-31T05:24:19;95649.88;;;10.22;76.03
77631;BME280;66798;47.370;8.552;2023-10-31T05:26:44;95658.94;;;10.35;76.21
77631;BME280;66798;47.370;8.552;2023-10-31T05:29:13;95658.63;;;10.36;76.22
77631;BME280;66798;47.370;8.552;2023-10-31T05:31:38;95661.25;;;10.36;75.87
77631;BME280;66798;47.370;8.552;2023-10-31T05:34:04;95671.22;;;10.39;75.91
77631;BME280;66798;47.370;8.552;2023-10-31T05:36:30;95671.22;;;10.39;76.75
77631;BME280;66798;47.370;8.552;2023-10-31T05:38:56;95666.81;;;10.35;75.62
77631;BME280;66798;47.370;8.552;2023-10-31T05:41:21;95669.63;;;10.38;75.98
77631;BME280;66798;47.370;8.552;2023-10-31T05:43:47;95676.06;;;10.32;76.17
77631;BME280;66798;47.370;8.552;2023-10-31T05:46:12;95668.00;;;10.24;75.10
77631;BME280;66798;47.370;8.552;2023-10-31T05:48:43;95679.16;;;10.34;75.06
77631;BME280;66798;47.370;8.552;2023-10-31T05:51:16;95679.88;;;10.40;75.45
77631;BME280;66798;47.370;8.552;2023-10-31T05:53:47;95678.53;;;10.43;75.01
77631;BME280;66798;47.370;8.552;2023-10-31T05:56:14;95678.38;;;10.34;75.26
77631;BME280;66798;47.370;8.552;2023-10-31T05:58:41;95687.41;;;10.28;75.82
77631;BME280;66798;47.370;8.552;2023-10-31T06:01:07;95699.81;;;10.22;75.65
77631;BME280;66798;47.370;8.552;2023-10-31T06:03:33;95694.75;;;10.31;75.75
77631;BME280;66798;47.370;8.552;2023-10-31T06:05:59;95701.00;;;10.35;76.17
77631;BME280;66798;47.370;8.552;2023-10-31T06:08:25;95696.22;;;10.37;76.02
77631;BME280;66798;47.370;8.552;2023-10-31T06:10:53;95705.84;;;10.41;75.78
77631;BME280;66798;47.370;8.552;2023-10-31T06:13:19;95708.06;;;10.34;76.51
77631;BME280;66798;47.370;8.552;2023-10-31T06:15:44;95701.06;;;10.30;74.56
77631;BME280;66798;47.370;8.552;2023-10-31T06:18:10;95705.00;;;10.27;75.64
77631;BME280;66798;47.370;8.552;2023-10-31T06:20:36;95709.84;;;10.39;75.06
77631;BME280;66798;47.370;8.552;2023-10-31T06:23:02;95714.13;;;10.35;75.24
77631;BME280;66798;47.370;8.552;2023-10-31T06:25:30;95706.53;;;10.33;75.81
77631;BME280;66798;47.370;8.552;2023-10-31T06:27:55;95713.41;;;10.29;75.59
77631;BME280;66798;47.370;8.552;2023-10-31T06:30:21;95711.19;;;10.36;76.25
77631;BME280;66798;47.370;8.552;2023-10-31T06:32:46;95726.47;;;10.34;76.08
77631;BME280;66798;47.370;8.552;2023-10-31T06:35:12;95722.56;;;10.32;76.56
77631;BME280;66798;47.370;8.552;2023-10-31T06:37:37;95734.34;;;10.34;76.11
77631;BME280;66798;47.370;8.552;2023-10-31T06:40:04;95746.94;;;10.37;78.15
77631;BME280;66798;47.370;8.552;2023-10-31T06:42:30;95738.16;;;10.28;79.46
77631;BME280;66798;47.370;8.552;2023-10-31T06:44:55;95743.56;;;10.13;80.20
77631;BME280;66798;47.370;8.552;2023-10-31T06:47:21;95742.09;;;10.26;80.55
77631;BME280;66798;47.370;8.552;2023-10-31T06:49:46;95746.03;;;10.28;80.74
77631;BME280;66798;47.370;8.552;2023-10-31T06:52:12;95752.28;;;10.32;80.29
77631;BME280;66798;47.370;8.552;2023-10-31T06:54:37;95749.75;;;10.22;80.90
77631;BME280;66798;47.370;8.552;2023-10-31T06:57:03;95751.47;;;10.13;81.03
77631;BME280;66798;47.370;8.552;2023-10-31T06:59:29;95746.63;;;10.20;80.59
77631;BME280;66798;47.370;8.552;2023-10-31T07:01:55;95751.47;;;10.13;81.43
77631;BME280;66798;47.370;8.552;2023-10-31T07:04:20;95758.56;;;10.12;80.79
77631;BME280;66798;47.370;8.552;2023-10-31T07:06:46;95764.03;;;10.16;81.51
77631;BME280;66798;47.370;8.552;2023-10-31T07:09:11;95771.34;;;10.19;79.82
77631;BME280;66798;47.370;8.552;2023-10-31T07:11:37;95773.97;;;10.19;79.64
77631;BME280;66798;47.370;8.552;2023-10-31T07:14:02;95770.69;;;10.32;80.18
77631;BME280;66798;47.370;8.552;2023-10-31T07:16:28;95775.13;;;10.32;80.14
77631;BME280;66798;47.370;8.552;2023-10-31T07:18:54;95782.81;;;10.28;79.99
77631;BME280;66798;47.370;8.552;2023-10-31T07:21:19;95775.28;;;10.40;79.42
77631;BME280;66798;47.370;8.552;2023-10-31T07:23:46;95784.81;;;10.36;80.54
77631;BME280;66798;47.370;8.552;2023-10-31T07:26:11;95778.13;;;10.25;80.65
77631;BME280;66798;47.370;8.552;2023-10-31T07:28:36;95781.66;;;10.15;80.59
77631;BME280;66798;47.370;8.552;2023-10-31T07:31:03;95783.25;;;10.35;80.04
77631;BME280;66798;47.370;8.552;2023-10-31T07:33:29;95779.09;;;10.48;80.15
77631;BME280;66798;47.370;8.552;2023-10-31T07:35:54;95783.69;;;10.43;80.27
77631;BME280;66798;47.370;8.552;2023-10-31T07:38:20;95782.41;;;10.40;79.62
77631;BME280;66798;47.370;8.552;2023-10-31T07:40:45;95779.28;;;10.38;78.87
77631;BME280;66798;47.370;8.552;2023-10-31T07:43:11;95786.31;;;10.43;79.38
77631;BME280;66798;47.370;8.552;2023-10-31T07:45:36;95786.66;;;10.36;79.58
77631;BME280;66798;47.370;8.552;2023-10-31T07:48:02;95799.63;;;10.27;78.60
77631;BME280;66798;47.370;8.552;2023-10-31T07:50:27;95791.72;;;10.27;79.16
77631;BME280;66798;47.370;8.552;2023-10-31T07:52:52;95792.91;;;10.40;79.22
77631;BME280;66798;47.370;8.552;2023-10-31T07:55:18;95799.09;;;10.49;78.34
77631;BME280;66798;47.370;8.552;2023-10-31T07:57:44;95789.53;;;10.53;79.06
77631;BME280;66798;47.370;8.552;2023-10-31T08:00:11;95799.72;;;10.60;78.85
77631;BME280;66798;47.370;8.552;2023-10-31T08:02:37;95799.50;;;10.56;79.03
77631;BME280;66798;47.370;8.552;2023-10-31T08:05:02;95788.84;;;10.48;78.36
77631;BME280;66798;47.370;8.552;2023-10-31T08:07:28;95801.06;;;10.57;79.09
77631;BME280;66798;47.370;8.552;2023-10-31T08:09:56;95791.75;;;10.46;79.24
77631;BME280;66798;47.370;8.552;2023-10-31T08:12:22;95802.16;;;10.56;80.08
77631;BME280;66798;47.370;8.552;2023-10-31T08:14:48;95804.41;;;10.63;79.08
77631;BME280;66798;47.370;8.552;2023-10-31T08:17:13;95801.38;;;10.56;78.11
77631;BME280;66798;47.370;8.552;2023-10-31T08:19:39;95814.06;;;10.68;78.50
77631;BME280;66798;47.370;8.552;2023-10-31T08:22:04;95811.09;;;10.55;79.58
77631;BME280;66798;47.370;8.552;2023-10-31T08:24:30;95805.88;;;10.69;78.59
77631;BME280;66798;47.370;8.552;2023-10-31T08:26:55;95809.59;;;10.68;79.30
77631;BME280;66798;47.370;8.552;2023-10-31T08:29:21;95816.13;;;10.71;77.86
77631;BME280;66798;47.370;8.552;2023-10-31T08:31:46;95817.91;;;10.75;77.59
77631;BME280;66798;47.370;8.552;2023-10-31T08:34:12;95827.28;;;10.81;77.70
77631;BME280;66798;47.370;8.552;2023-10-31T08:36:37;95833.03;;;10.83;77.94
77631;BME280;66798;47.370;8.552;2023-10-31T08:39:04;95820.66;;;10.84;76.83
77631;BME280;66798;47.370;8.552;2023-10-31T08:41:30;95831.47;;;10.82;76.57
77631;BME280;66798;47.370;8.552;2023-10-31T08:43:55;95819.94;;;10.97;77.25
77631;BME280;66798;47.370;8.552;2023-10-31T08:46:20;95829.22;;;11.09;77.16
77631;BME280;66798;47.370;8.552;2023-10-31T08:48:47;95834.09;;;11.15;76.41
77631;BME280;66798;47.370;8.552;2023-10-31T08:51:12;95837.47;;;11.02;74.79
77631;BME280;66798;47.370;8.552;2023-10-31T08:53:38;95835.13;;;11.00;77.76
77631;BME280;66798;47.370;8.552;2023-10-31T08:56:03;95833.00;;;11.02;77.62
77631;BME280;66798;47.370;8.552;2023-10-31T08:58:29;95833.03;;;11.16;77.99
77631;BME280;66798;47.370;8.552;2023-10-31T09:00:55;95838.72;;;11.23;77.41
77631;BME280;66798;47.370;8.552;2023-10-31T09:03:20;95842.53;;;11.31;77.64
77631;BME280;66798;47.370;8.552;2023-10-31T09:05:45;95842.75;;;11.35;76.45
77631;BME280;66798;47.370;8.552;2023-10-31T09:08:11;95844.47;;;11.25;76.41
77631;BME280;66798;47.370;8.552;2023-10-31T09:10:37;95835.41;;;11.18;74.64
77631;BME280;66798;47.370;8.552;2023-10-31T09:13:06;95844.78;;;11.38;77.40
77631;BME280;66798;47.370;8.552;2023-10-31T09:15:31;95835.66;;;11.49;76.68
77631;BME280;66798;47.370;8.552;2023-10-31T09:17:57;95838.38;;;11.58;77.09
77631;BME280;66798;47.370;8.552;2023-10-31T09:20:22;95833.78;;;11.50;74.92
77631;BME280;66798;47.370;8.552;2023-10-31T09:22:48;95834.78;;;11.67;74.88
77631;BME280;66798;47.370;8.552;2023-10-31T09:25:13;95828.63;;;11.72;74.50
77631;BME280;66798;47.370;8.552;2023-10-31T09:27:40;95833.78;;;11.77;75.16
77631;BME280;66798;47.370;8.552;2023-10-31T09:30:07;95824.44;;;11.85;74.42
77631;BME280;66798;47.370;8.552;2023-10-31T09:32:32;95826.09;;;11.81;74.74
77631;BME280;66798;47.370;8.552;2023-10-31T09:34:58;95829.72;;;11.85;73.97
77631;BME280;66798;47.370;8.552;2023-10-31T09:37:24;95825.53;;;11.98;73.71
77631;BME280;66798;47.370;8.552;2023-10-31T09:39:49;95822.03;;;12.02;73.09
77631;BME280;66798;47.370;8.552;2023-10-31T09:42:15;95832.47;;;11.94;71.87
77631;BME280;66798;47.370;8.552;2023-10-31T09:44:41;95817.25;;;12.04;74.27
77631;BME280;66798;47.370;8.552;2023-10-31T09:47:06;95827.09;;;11.99;73.22
77631;BME280;66798;47.370;8.552;2023-10-31T09:49:32;95835.59;;;11.96;72.60
77631;BME280;66798;47.370;8.552;2023-10-31T09:51:58;95827.28;;;12.02;71.44
77631;BME280;66798;47.370;8.552;2023-10-31T09:54:25;95833.81;;;12.19;71.87
77631;BME280;66798;47.370;8.552;2023-10-31T09:56:51;95829.16;;;12.16;72.30
77631;BME280;66798;47.370;8.552;2023-10-31T09:59:17;95823.34;;;12.27;72.00
77631;BME280;66798;47.370;8.552;2023-10-31T10:01:43;95828.22;;;12.34;71.98
77631;BME280;66798;47.370;8.552;2023-10-31T10:04:09;95828.31;;;12.29;71.77
77631;BME280;66798;47.370;8.552;2023-10-31T10:06:35;95826.72;;;12.42;70.51
77631;BME280;66798;47.370;8.552;2023-10-31T10:09:00;95830.13;;;12.56;71.19
77631;BME280;66798;47.370;8.552;2023-10-31T10:11:29;95820.50;;;12.38;69.95
77631;BME280;66798;47.370;8.552;2023-10-31T10:13:57;95827.78;;;12.54;70.38
77631;BME280;66798;47.370;8.552;2023-10-31T10:16:30;95826.88;;;12.59;69.30
77631;BME280;66798;47.370;8.552;2023-10-31T10:18:56;95834.63;;;12.42;68.96
77631;BME280;66798;47.370;8.552;2023-10-31T10:21:22;95814.53;;;12.32;69.09
77631;BME280;66798;47.370;8.552;2023-10-31T10:23:47;95818.41;;;12.48;69.51
77631;BME280;66798;47.370;8.552;2023-10-31T10:26:14;95822.81;;;12.39;69.86
77631;BME280;66798;47.370;8.552;2023-10-31T10:28:40;95825.97;;;12.27;68.57
77631;BME280;66798;47.370;8.552;2023-10-31T10:31:06;95825.25;;;12.49;69.13
77631;BME280;66798;47.370;8.552;2023-10-31T10:33:34;95831.34;;;12.36;67.59
77631;BME280;66798;47.370;8.552;2023-10-31T10:36:02;95827.53;;;12.42;70.34
77631;BME280;66798;47.370;8.552;2023-10-31T10:38:32;95831.06;;;12.38;68.93
77631;BME280;66798;47.370;8.552;2023-10-31T10:41:02;95832.31;;;12.40;68.83
77631;BME280;66798;47.370;8.552;2023-10-31T10:43:37;95849.16;;;12.53;69.06
77631;BME280;66798;47.370;8.552;2023-10-31T10:46:05;95839.66;;;12.29;69.02
77631;BME280;66798;47.370;8.552;2023-10-31T10:48:38;95841.19;;;12.44;69.29
77631;BME280;66798;47.370;8.552;2023-10-31T10:51:16;95842.13;;;12.62;70.39
77631;BME280;66798;47.370;8.552;2023-10-31T10:53:49;95834.28;;;12.71;69.00
77631;BME280;66798;47.370;8.552;2023-10-31T10:56:26;95838.34;;;12.77;70.17
77631;BME280;66798;47.370;8.552;2023-10-31T10:59:11;95841.44;;;12.70;69.01
77631;BME280;66798;47.370;8.552;2023-10-31T11:01:41;95828.50;;;12.91;70.21
77631;BME280;66798;47.370;8.552;2023-10-31T11:04:08;95835.41;;;13.01;67.63
77631;BME280;66798;47.370;8.552;2023-10-31T11:06:37;95842.13;;;13.07;69.17
77631;BME280;66798;47.370;8.552;2023-10-31T11:09:04;95835.84;;;13.17;67.30
77631;BME280;66798;47.370;8.552;2023-10-31T11:11:32;95834.28;;;13.16;67.47
77631;BME280;66798;47.370;8.552;2023-10-31T11:13:58;95837.63;;;13.08;67.69
77631;BME280;66798;47.370;8.552;2023-10-31T11:16:30;95836.47;;;13.23;68.41
77631;BME280;66798;47.370;8.552;2023-10-31T11:18:59;95848.03;;;13.04;66.77
77631;BME280;66798;47.370;8.552;2023-10-31T11:21:28;95847.97;;;13.18;67.78
77631;BME280;66798;47.370;8.552;2023-10-31T11:23:58;95848.81;;;13.27;68.13
77631;BME280;66798;47.370;8.552;2023-10-31T11:26:29;95847.41;;;13.07;66.64
77631;BME280;66798;47.370;8.552;2023-10-31T11:29:05;95851.69;;;12.94;69.04
77631;BME280;66798;47.370;8.552;2023-10-31T11:31:32;95850.13;;;12.93;67.50
77631;BME280;66798;47.370;8.552;2023-10-31T11:34:01;95848.69;;;12.87;67.77
77631;BME280;66798;47.370;8.552;2023-10-31T11:36:30;95853.78;;;12.84;65.80
77631;BME280;66798;47.370;8.552;2023-10-31T11:39:13;95858.56;;;12.82;67.63
77631;BME280;66798;47.370;8.552;2023-10-31T11:41:40;95854.56;;;13.07;68.54
77631;BME280;66798;47.370;8.552;2023-10-31T11:44:05;95861.28;;;13.13;67.74
77631;BME280;66798;47.370;8.552;2023-10-31T11:46:31;95865.28;;;13.10;67.08
77631;BME280;66798;47.370;8.552;2023-10-31T11:49:00;95868.28;;;13.17;68.21
77631;BME280;66798;47.370;8.552;2023-10-31T11:51:27;95870.16;;;12.94;67.83
77631;BME280;66798;47.370;8.552;2023-10-31T11:53:52;95875.44;;;12.94;66.89
77631;BME280;66798;47.370;8.552;2023-10-31T11:56:19;95873.91;;;12.80;68.00
77631;BME280;66798;47.370;8.552;2023-10-31T11:58:54;95873.81;;;12.85;68.60
77631;BME280;66798;47.370;8.552;2023-10-31T12:01:20;95881.44;;;12.86;67.49
77631;BME280;66798;47.370;8.552;2023-10-31T12:03:46;95888.75;;;12.89;69.37
77631;BME280;66798;47.370;8.552;2023-10-31T12:06:14;95881.78;;;12.71;70.63
77631;BME280;66798;47.370;8.552;2023-10-31T12:08:42;95877.59;;;12.92;70.52
77631;BME280;66798;47.370;8.552;2023-10-31T12:11:12;95880.03;;;12.89;70.48
77631;BME280;66798;47.370;8.552;2023-10-31T12:13:40;95885.81;;;12.91;69.97
77631;BME280;66798;47.370;8.552;2023-10-31T12:16:07;95879.63;;;12.95;68.93
77631;BME280;66798;47.370;8.552;2023-10-31T12:18:34;95884.03;;;13.00;68.22
77631;BME280;66798;47.370;8.552;2023-10-31T12:21:01;95885.41;;;12.98;68.60
77631;BME280;66798;47.370;8.552;2023-10-31T12:23:26;95888.03;;;12.98;68.47
77631;BME280;66798;47.370;8.552;2023-10-31T12:25:53;95888.97;;;12.79;68.78
77631;BME280;66798;47.370;8.552;2023-10-31T12:28:24;95892.31;;;12.85;69.07
77631;BME280;66798;47.370;8.552;2023-10-31T12:30:52;95892.47;;;12.88;69.71
77631;BME280;66798;47.370;8.552;2023-10-31T12:33:25;95902.47;;;12.78;69.29
77631;BME280;66798;47.370;8.552;2023-10-31T12:35:59;95896.28;;;12.82;68.20
77631;BME280;66798;47.370;8.552;2023-10-31T12:38:25;95906.56;;;12.84;68.90
77631;BME280;66798;47.370;8.552;2023-10-31T12:40:52;95902.94;;;12.80;68.62
77631;BME280;66798;47.370;8.552;2023-10-31T12:43:18;95898.09;;;12.73;69.22
77631;BME280;66798;47.370;8.552;2023-10-31T12:45:43;95901.03;;;12.58;69.04
77631;BME280;66798;47.370;8.552;2023-10-31T12:48:10;95906.81;;;12.60;68.76
77631;BME280;66798;47.370;8.552;2023-10-31T12:50:38;95907.28;;;12.62;70.42
77631;BME280;66798;47.370;8.552;2023-10-31T12:53:08;95903.78;;;12.66;69.76
77631;BME280;66798;47.370;8.552;2023-10-31T12:55:41;95900.34;;;12.66;69.48